TimePDT,TemperatureF,Dew PointF,Humidity,Sea Level PressureIn,VisibilityMPH,Wind Direction,Wind SpeedMPH,Gust SpeedMPH,PrecipitationIn,Events,Conditions,WindDirDegrees,DateUTC
12:34 AM,66.2,57.2,73,29.95,7.0,Calm,Calm,-,N/A,,Partly Cloudy,0,2013-07-10 07:34:00
12:55 AM,64.9,57.9,78,29.97,7.0,Calm,Calm,-,N/A,,Partly Cloudy,0,2013-07-10 07:55:00
1:55 AM,64.9,57.9,78,29.96,7.0,Calm,Calm,-,N/A,,Clear,0,2013-07-10 08:55:00
2:55 AM,64.9,59.0,81,29.96,6.0,Calm,Calm,-,N/A,,Haze,0,2013-07-10 09:55:00
3:55 AM,64.0,57.9,80,29.96,6.0,Calm,Calm,-,N/A,,Haze,0,2013-07-10 10:55:00
4:55 AM,64.9,57.9,78,29.96,7.0,Calm,Calm,-,N/A,,Clear,0,2013-07-10 11:55:00
5:55 AM,64.9,57.9,78,29.97,7.0,Calm,Calm,-,N/A,,Clear,0,2013-07-10 12:55:00
6:55 AM,66.0,57.9,75,29.99,5.0,North,4.6,-,N/A,,Haze,350,2013-07-10 13:55:00
7:55 AM,68.0,60.1,76,29.99,6.0,Calm,Calm,-,N/A,,Haze,0,2013-07-10 14:55:00
8:55 AM,72.0,60.1,66,29.99,8.0,Calm,Calm,-,N/A,,Clear,0,2013-07-10 15:55:00
9:55 AM,73.0,61.0,66,29.99,7.0,WSW,4.6,-,N/A,,Clear,240,2013-07-10 16:55:00
10:55 AM,73.9,61.0,64,29.98,8.0,West,5.8,-,N/A,,Clear,260,2013-07-10 17:55:00
11:55 AM,75.9,62.1,62,29.99,8.0,SW,4.6,-,N/A,,Clear,220,2013-07-10 18:55:00
12:55 PM,81.0,61.0,50,29.98,10.0,SW,5.8,-,N/A,,Clear,230,2013-07-10 19:55:00
1:55 PM,81.0,62.1,52,29.98,10.0,SW,10.4,-,N/A,,Clear,230,2013-07-10 20:55:00
2:55 PM,82.9,61.0,47,29.97,10.0,WSW,6.9,-,N/A,,Clear,250,2013-07-10 21:55:00
3:55 PM,79.0,61.0,54,29.95,10.0,West,9.2,-,N/A,,Clear,260,2013-07-10 22:55:00
4:55 PM,79.0,61.0,54,29.94,10.0,West,6.9,-,N/A,,Clear,260,2013-07-10 23:55:00
5:55 PM,75.9,60.1,58,29.94,10.0,West,9.2,-,N/A,,Clear,260,2013-07-11 00:55:00
6:55 PM,73.9,60.1,62,29.94,10.0,West,5.8,-,N/A,,Clear,260,2013-07-11 01:55:00
7:55 PM,73.0,60.1,64,29.94,10.0,West,3.5,-,N/A,,Clear,280,2013-07-11 02:55:00
8:55 PM,73.0,60.1,64,29.94,10.0,Calm,Calm,-,N/A,,Clear,0,2013-07-11 03:55:00
9:55 PM,73.0,60.1,64,29.95,10.0,West,3.5,-,N/A,,Clear,280,2013-07-11 04:55:00
10:55 PM,72.0,60.1,66,29.93,10.0,WNW,6.9,-,N/A,,Clear,300,2013-07-11 05:55:00
11:55 PM,71.1,60.1,68,29.92,10.0,West,9.2,-,N/A,,Clear,270,2013-07-11 06:55:00